Time;durP1;ratioP1;P1;durP2;ratioP2;P2;SDS_P1;SDS_P2;PMS_P1;PMS_P2;Temp;Humidity;BMP_temperature;BMP_pressure;BME280_temperature;BME280_humidity;BME280_pressure;Samples;Min_cycle;Max_cycle;Signal;HPM_P1;HPM_P2
2023/07/11 18:53:12;;;;;;;13.22;3.87;;;;;;;27.06;52.41;100555.16;5136054;54;46790;-65
2023/07/11 18:58:18;;;;;;;17.73;10.28;;;;;;;26.84;53.53;100558.30;5003212;56;1136812;-65
2023/07/11 19:03:23;;;;;;;14.77;7.77;;;;;;;26.69;53.91;100559.18;5033723;56;1142975;-65
2023/07/11 19:08:29;;;;;;;19.55;6.62;;;;;;;26.48;55.42;100552.27;5045140;57;1140753;-65
2023/07/11 19:13:34;;;;;;;20.65;5.03;;;;;;;26.34;56.13;100553.95;4929262;57;1140899;-65
2023/07/11 19:18:40;;;;;;;15.65;4.03;;;;;;;26.25;56.91;100558.80;4805397;59;1141030;-65
2023/07/11 19:23:46;;;;;;;9.88;2.65;;;;;;;26.07;57.77;100560.91;4867807;58;1140843;-65
2023/07/11 19:28:52;;;;;;;16.10;3.00;;;;;;;25.98;59.08;100554.07;4976297;57;1138894;-65
2023/07/11 19:33:57;;;;;;;19.20;3.58;;;;;;;25.88;59.43;100550.50;4925362;57;1141109;-66
2023/07/11 19:39:03;;;;;;;3.87;2.50;;;;;;;25.72;59.88;100559.14;4959800;57;1141116;-64
2023/07/11 19:44:09;;;;;;;6.45;2.70;;;;;;;25.52;60.49;100561.91;4977643;57;1138841;-64
2023/07/11 19:49:15;;;;;;;9.43;5.12;;;;;;;25.34;61.31;100556.91;4973331;57;1138861;-65
2023/07/11 19:54:20;;;;;;;13.35;5.45;;;;;;;25.18;61.83;100561.75;4972864;57;1139362;-64
2023/07/11 19:59:26;;;;;;;16.55;5.30;;;;;;;25.04;62.40;100549.83;5012069;56;1141276;-65
2023/07/11 20:04:32;;;;;;;18.25;5.00;;;;;;;24.87;62.68;100552.13;4965867;57;1140835;-67
2023/07/11 20:09:37;;;;;;;14.23;6.90;;;;;;;24.68;63.68;100558.39;4989448;57;1141065;-66
2023/07/11 20:14:45;;;;;;;11.85;6.55;;;;;;;24.57;64.96;100559.03;5033871;57;1140956;-67
2023/07/11 20:19:51;;;;;;;12.15;7.25;;;;;;;24.50;66.13;100554.45;5060644;57;1141281;-69
2023/07/11 20:24:56;;;;;;;17.17;8.20;;;;;;;24.40;66.38;100555.41;4924514;56;1140848;-67
2023/07/11 20:30:02;;;;;;;26.07;10.53;;;;;;;24.31;66.48;100550.39;4966903;57;1140984;-66
2023/07/11 20:35:10;;;;;;;28.83;11.70;;;;;;;24.30;66.96;100550.08;4973431;57;1142906;-66
2023/07/11 20:40:26;;;;;;;26.82;12.70;;;;;;;24.30;66.77;100546.86;4991170;57;1143346;-65
2023/07/11 20:45:32;;;;;;;23.13;11.20;;;;;;;24.23;66.59;100539.28;5013988;57;1142870;-66
2023/07/11 20:50:40;;;;;;;26.75;12.98;;;;;;;24.11;66.93;100532.80;5032380;56;1143030;-65
2023/07/11 20:55:54;;;;;;;6.05;4.10;;;;;;;24.02;66.39;100525.40;5031264;56;1143144;-65
2023/07/11 21:01:00;;;;;;;5.93;2.97;;;;;;;23.89;66.29;100516.45;5028163;57;1138723;-66
2023/07/11 21:06:22;;;;;;;4.28;2.40;;;;;;;23.77;67.08;100514.87;5038072;57;1138689;-66
2023/07/11 21:11:27;;;;;;;4.00;2.90;;;;;;;23.62;66.85;100505.60;5020207;57;1138866;-65
2023/07/11 21:16:35;;;;;;;9.00;3.27;;;;;;;23.54;67.47;100492.27;5024719;57;1138974;-66
2023/07/11 21:21:40;;;;;;;3.45;2.70;;;;;;;23.47;67.63;100486.84;5058384;57;1139131;-66
2023/07/11 21:26:46;;;;;;;7.22;3.33;;;;;;;23.31;67.19;100466.13;5049056;57;1138769;-66
2023/07/11 21:31:52;;;;;;;11.18;4.30;;;;;;;23.18;67.32;100467.45;5018794;57;1139059;-66
2023/07/11 21:36:58;;;;;;;7.03;3.37;;;;;;;23.16;67.51;100456.85;5033098;57;1150124;-65
2023/07/11 21:42:03;;;;;;;10.43;3.80;;;;;;;23.21;67.51;100454.91;5020946;57;1138627;-65
2023/07/11 21:47:10;;;;;;;11.15;4.47;;;;;;;23.23;67.25;100439.31;5016658;57;1140936;-65
2023/07/11 21:52:15;;;;;;;10.38;4.42;;;;;;;23.20;66.48;100422.20;5056405;57;1141228;-65
2023/07/11 21:57:21;;;;;;;10.10;4.42;;;;;;;23.21;66.19;100420.66;5037619;57;1141218;-66
2023/07/11 22:02:27;;;;;;;10.72;4.42;;;;;;;23.15;65.82;100405.27;5050009;57;1141411;-65
2023/07/11 22:07:32;;;;;;;8.90;4.33;;;;;;;23.10;64.91;100396.43;5066742;57;1140860;-66
2023/07/11 22:12:38;;;;;;;6.10;3.42;;;;;;;23.08;64.31;100393.09;5017378;56;1138943;-65
2023/07/11 22:17:43;;;;;;;7.40;3.15;;;;;;;23.03;63.73;100388.02;5054391;56;1139002;-65
2023/07/11 22:22:49;;;;;;;11.75;3.42;;;;;;;22.96;63.07;100373.66;5074478;56;1139155;-65
2023/07/11 22:27:55;;;;;;;13.58;5.30;;;;;;;22.96;63.19;100376.36;5053909;57;1140988;-66
2023/07/11 22:33:03;;;;;;;9.20;5.03;;;;;;;22.93;62.51;100351.97;5054256;57;1141076;-65
2023/07/11 22:38:10;;;;;;;6.72;4.30;;;;;;;22.87;62.17;100357.36;5074543;57;1138660;-65
2023/07/11 22:43:20;;;;;;;8.85;3.80;;;;;;;22.82;61.91;100363.88;5054662;57;1138636;-66
2023/07/11 22:48:29;;;;;;;8.00;3.70;;;;;;;22.68;61.74;100383.18;5054686;57;1138910;-65
2023/07/11 22:53:36;;;;;;;7.20;2.92;;;;;;;22.68;61.74;100383.18;5004136;57;1139202;-66
2023/07/11 22:58:42;;;;;;;9.33;3.58;;;;;;;22.63;60.90;100424.22;5067632;56;1138729;-65
2023/07/11 23:03:48;;;;;;;9.05;3.08;;;;;;;22.50;60.88;100445.71;5054336;57;1138894;-65
2023/07/11 23:08:55;;;;;;;6.94;4.34;;;;;;;22.50;61.64;100478.56;4995714;57;1138882;-67
2023/07/11 23:14:00;;;;;;;14.95;4.03;;;;;;;22.55;61.93;100458.60;4988499;57;1139176;-65
2023/07/11 23:19:07;;;;;;;3.52;2.75;;;;;;;22.51;61.80;100432.55;5042932;57;1140831;-65
2023/07/11 23:24:13;;;;;;;5.30;3.33;;;;;;;22.38;61.89;100400.97;4989179;57;1138879;-65
2023/07/11 23:29:20;;;;;;;4.65;3.27;;;;;;;22.14;62.11;100404.66;4972457;57;1138725;-65
2023/07/11 23:34:25;;;;;;;5.42;4.17;;;;;;;21.96;62.61;100389.79;4991913;57;1139158;-65
2023/07/11 23:39:31;;;;;;;14.15;4.05;;;;;;;21.91;63.11;100397.61;4998329;57;1138957;-65
2023/07/11 23:44:37;;;;;;;7.17;3.47;;;;;;;21.85;63.29;100412.36;5054574;57;1140985;-66
2023/07/11 23:49:42;;;;;;;4.35;2.92;;;;;;;21.83;63.42;100413.09;5074595;57;1138848;-65
2023/07/11 23:54:48;;;;;;;4.87;2.90;;;;;;;21.74;63.21;100419.95;4981443;57;1138892;-66
2023/07/11 23:59:53;;;;;;;4.22;3.22;;;;;;;21.61;63.27;100383.49;4974837;57;1139025;-64
